Time;durP1;ratioP1;P1;durP2;ratioP2;P2;SDS_P1;SDS_P2;PMS_P1;PMS_P2;Temp;Humidity;BMP_temperature;BMP_pressure;BME280_temperature;BME280_humidity;BME280_pressure;Samples;Min_cycle;Max_cycle;Signal;HPM_P1;HPM_P2
2022/08/22 00:02:02;;;;;;;0.50;0.30;;;;;;;;;;108338;1301;23403;-31
2022/08/22 00:04:35;;;;;;;2.20;0.40;;;;;;;;;;108025;1308;23195;-31
2022/08/22 00:07:05;;;;;;;0.30;0.30;;;;;;;;;;108376;1300;23088;-23
2022/08/22 00:09:34;;;;;;;0.70;0.40;;;;;;;;;;108313;1301;22493;-23
2022/08/22 00:12:02;;;;;;;11.70;0.40;;;;;;;;;;108287;1301;22538;-24
2022/08/22 00:14:33;;;;;;;0.50;0.20;;;;;;;;;;108326;1301;22829;-30
2022/08/22 00:17:02;;;;;;;1.30;0.20;;;;;;;;;;108379;1300;23282;-30
2022/08/22 00:19:31;;;;;;;2.70;0.30;;;;;;;;;;108310;1301;22098;-30
2022/08/22 00:21:57;;;;;;;0.30;0.20;;;;;;;;;;108255;1301;22588;-30
2022/08/22 00:24:26;;;;;;;0.60;0.30;;;;;;;;;;108273;1308;22497;-23
2022/08/22 00:26:53;;;;;;;0.40;0.10;;;;;;;;;;108293;1301;22421;-23
2022/08/22 00:29:21;;;;;;;0.40;0.30;;;;;;;;;;108328;1301;23367;-23
2022/08/22 00:31:50;;;;;;;0.60;0.20;;;;;;;;;;108324;1308;23211;-30
2022/08/22 00:34:21;;;;;;;0.40;0.20;;;;;;;;;;108293;1308;22460;-22
2022/08/22 00:36:50;;;;;;;0.00;0.00;;;;;;;;;;108337;1300;22952;-30
2022/08/22 00:39:18;;;;;;;0.30;0.20;;;;;;;;;;108314;1301;23226;-23
2022/08/22 00:41:44;;;;;;;0.30;0.10;;;;;;;;;;108300;1301;23139;-23
2022/08/22 00:44:13;;;;;;;0.10;0.10;;;;;;;;;;108368;1301;22393;-24
2022/08/22 00:46:40;;;;;;;0.10;0.10;;;;;;;;;;108324;1301;23201;-31
2022/08/22 00:49:10;;;;;;;0.30;0.20;;;;;;;;;;108303;1301;22542;-30
2022/08/22 00:51:39;;;;;;;0.20;0.10;;;;;;;;;;108181;1301;23360;-31
2022/08/22 00:54:04;;;;;;;0.20;0.20;;;;;;;;;;108268;1301;23192;-22
2022/08/22 00:56:36;;;;;;;0.20;0.20;;;;;;;;;;108356;1300;23121;-30
2022/08/22 00:59:05;;;;;;;1.10;0.20;;;;;;;;;;108377;1300;22565;-22
2022/08/22 01:01:32;;;;;;;0.20;0.10;;;;;;;;;;108332;1301;22360;-30
2022/08/22 01:04:03;;;;;;;0.30;0.10;;;;;;;;;;108297;1301;23283;-30
2022/08/22 01:06:28;;;;;;;0.00;0.00;;;;;;;;;;108259;1308;22060;-23
2022/08/22 01:08:56;;;;;;;0.30;0.20;;;;;;;;;;108223;1301;22425;-30
2022/08/22 01:11:23;;;;;;;0.60;0.30;;;;;;;;;;108314;1301;22913;-30
2022/08/22 01:13:53;;;;;;;0.20;0.20;;;;;;;;;;108312;1301;22837;-23
2022/08/22 01:16:33;;;;;;;0.30;0.10;;;;;;;;;;108287;1301;22394;-31
2022/08/22 01:19:02;;;;;;;0.40;0.20;;;;;;;;;;108403;1300;22482;-26
2022/08/22 01:21:34;;;;;;;0.30;0.30;;;;;;;;;;108273;1301;23072;-30
2022/08/22 01:24:12;;;;;;;0.30;0.20;;;;;;;;;;108315;1308;23702;-31
2022/08/22 01:26:51;;;;;;;1.00;0.30;;;;;;;;;;108318;1301;23163;-23
2022/08/22 01:29:20;;;;;;;0.50;0.20;;;;;;;;;;107388;1300;23297;-31
2022/08/22 01:31:49;;;;;;;0.50;0.30;;;;;;;;;;108319;1301;23161;-31
2022/08/22 01:34:18;;;;;;;0.30;0.20;;;;;;;;;;108307;1308;22570;-24
2022/08/22 01:36:47;;;;;;;1.70;0.20;;;;;;;;;;108308;1301;23046;-31
2022/08/22 01:39:16;;;;;;;0.10;0.10;;;;;;;;;;108217;1301;22530;-23
2022/08/22 01:41:48;;;;;;;0.30;0.10;;;;;;;;;;108299;1301;23198;-23
2022/08/22 01:44:13;;;;;;;2.80;0.10;;;;;;;;;;108415;1300;22459;-31
2022/08/22 01:46:44;;;;;;;4.10;0.30;;;;;;;;;;107909;1308;22428;-23
2022/08/22 01:49:13;;;;;;;0.60;0.30;;;;;;;;;;108397;1300;22523;-31
2022/08/22 01:51:42;;;;;;;0.30;0.20;;;;;;;;;;108292;1301;22514;-23
2022/08/22 01:54:09;;;;;;;0.90;0.30;;;;;;;;;;108315;1301;23162;-23
2022/08/22 01:56:38;;;;;;;0.30;0.30;;;;;;;;;;108186;1302;23133;-27
2022/08/22 01:59:05;;;;;;;0.40;0.40;;;;;;;;;;108320;1301;22442;-30
2022/08/22 02:01:31;;;;;;;0.70;0.50;;;;;;;;;;108179;1308;23130;-30
2022/08/22 02:04:00;;;;;;;0.50;0.30;;;;;;;;;;108314;1301;23454;-31
2022/08/22 02:06:31;;;;;;;0.70;0.40;;;;;;;;;;108043;1301;22962;-22
2022/08/22 02:09:01;;;;;;;0.60;0.50;;;;;;;;;;108373;1301;22461;-23
2022/08/22 02:11:30;;;;;;;0.40;0.30;;;;;;;;;;108311;1301;23144;-23
2022/08/22 02:13:58;;;;;;;0.60;0.30;;;;;;;;;;108177;1303;25314;-30
2022/08/22 02:16:32;;;;;;;1.10;0.30;;;;;;;;;;108053;1308;23129;-24
2022/08/22 02:19:02;;;;;;;0.70;0.40;;;;;;;;;;108305;1301;22456;-30
2022/08/22 02:21:31;;;;;;;0.30;0.30;;;;;;;;;;108364;1292;22426;-30
2022/08/22 02:23:58;;;;;;;0.30;0.20;;;;;;;;;;108047;1301;25208;-25
2022/08/22 02:26:26;;;;;;;0.70;0.40;;;;;;;;;;107825;1301;23333;-23
2022/08/22 02:28:56;;;;;;;1.20;0.30;;;;;;;;;;108336;1301;22947;-23
2022/08/22 02:31:24;;;;;;;1.30;0.80;;;;;;;;;;108341;1308;22761;-30
2022/08/22 02:33:49;;;;;;;0.60;0.40;;;;;;;;;;108347;1308;22587;-30
2022/08/22 02:36:17;;;;;;;1.20;0.50;;;;;;;;;;107819;1308;23143;-22
2022/08/22 02:38:46;;;;;;;0.70;0.40;;;;;;;;;;108334;1300;22407;-23
2022/08/22 02:41:13;;;;;;;0.50;0.50;;;;;;;;;;108327;1304;22550;-22
2022/08/22 02:43:46;;;;;;;0.80;0.40;;;;;;;;;;108345;1301;23199;-22
2022/08/22 02:46:13;;;;;;;0.80;0.40;;;;;;;;;;108369;1300;23231;-30
2022/08/22 02:48:41;;;;;;;0.40;0.40;;;;;;;;;;108305;1301;22427;-23
2022/08/22 02:51:10;;;;;;;1.10;0.60;;;;;;;;;;108184;1308;22517;-23
2022/08/22 02:53:43;;;;;;;4.20;0.40;;;;;;;;;;108320;1301;22435;-22
2022/08/22 02:56:10;;;;;;;0.60;0.30;;;;;;;;;;108373;1300;22531;-30
2022/08/22 02:58:36;;;;;;;0.40;0.30;;;;;;;;;;108127;1308;23231;-29
2022/08/22 03:01:01;;;;;;;0.50;0.20;;;;;;;;;;108187;1300;22671;-22
2022/08/22 03:03:28;;;;;;;0.50;0.30;;;;;;;;;;108140;1301;22253;-23
2022/08/22 03:05:56;;;;;;;0.30;0.20;;;;;;;;;;108307;1301;22785;-29
2022/08/22 03:08:23;;;;;;;0.30;0.20;;;;;;;;;;108338;1308;23360;-30
2022/08/22 03:10:53;;;;;;;0.40;0.10;;;;;;;;;;108342;1301;22910;-23
2022/08/22 03:13:22;;;;;;;3.20;0.20;;;;;;;;;;108326;1301;23325;-23
2022/08/22 03:15:52;;;;;;;0.50;0.20;;;;;;;;;;108300;1301;22454;-22
2022/08/22 03:18:21;;;;;;;0.40;0.40;;;;;;;;;;108296;1308;22065;-30
2022/08/22 03:20:58;;;;;;;1.40;0.40;;;;;;;;;;108268;1308;22559;-22
2022/08/22 03:23:27;;;;;;;0.40;0.20;;;;;;;;;;108330;1301;23224;-30
2022/08/22 03:26:04;;;;;;;0.90;0.30;;;;;;;;;;108310;1301;23327;-30
2022/08/22 03:28:42;;;;;;;0.20;0.20;;;;;;;;;;108352;1288;23191;-25
2022/08/22 03:31:16;;;;;;;1.00;0.40;;;;;;;;;;108210;1301;22478;-22
2022/08/22 03:33:41;;;;;;;0.60;0.30;;;;;;;;;;108383;1301;22425;-30
2022/08/22 03:36:26;;;;;;;0.80;0.30;;;;;;;;;;108305;1308;23257;-22
2022/08/22 03:38:51;;;;;;;0.50;0.40;;;;;;;;;;108303;1301;22197;-29
2022/08/22 03:41:20;;;;;;;0.10;0.10;;;;;;;;;;108345;1300;22528;-23
2022/08/22 03:43:50;;;;;;;0.50;0.30;;;;;;;;;;108174;1302;22536;-22
2022/08/22 03:46:22;;;;;;;1.30;0.40;;;;;;;;;;108311;1301;23263;-30
2022/08/22 03:48:51;;;;;;;0.80;0.50;;;;;;;;;;108343;1301;23291;-23
2022/08/22 03:51:18;;;;;;;0.20;0.20;;;;;;;;;;108313;1301;22527;-30
2022/08/22 03:53:47;;;;;;;0.40;0.30;;;;;;;;;;108311;1301;22259;-23
2022/08/22 03:56:16;;;;;;;1.80;0.30;;;;;;;;;;108305;1308;22543;-30
2022/08/22 03:58:46;;;;;;;0.90;0.50;;;;;;;;;;108236;1301;23157;-30
2022/08/22 04:01:15;;;;;;;0.40;0.30;;;;;;;;;;108279;1300;22983;-32
2022/08/22 04:03:41;;;;;;;3.00;0.40;;;;;;;;;;108176;1301;23156;-24
2022/08/22 04:06:07;;;;;;;0.70;0.40;;;;;;;;;;108284;1301;23424;-25
2022/08/22 04:08:38;;;;;;;0.80;0.30;;;;;;;;;;107893;1301;23102;-30
2022/08/22 04:11:10;;;;;;;1.80;0.60;;;;;;;;;;108273;1301;23218;-23
2022/08/22 04:13:36;;;;;;;0.40;0.30;;;;;;;;;;108165;1301;22542;-23
2022/08/22 04:16:05;;;;;;;0.90;0.30;;;;;;;;;;108267;1308;22578;-24
2022/08/22 04:18:34;;;;;;;0.80;0.30;;;;;;;;;;108253;1308;23007;-25
2022/08/22 04:21:19;;;;;;;1.10;0.30;;;;;;;;;;108118;1308;22514;-30
2022/08/22 04:23:53;;;;;;;1.20;0.50;;;;;;;;;;108324;1301;23230;-23
2022/08/22 04:26:20;;;;;;;0.70;0.40;;;;;;;;;;108299;1308;22516;-30
2022/08/22 04:28:48;;;;;;;0.40;0.30;;;;;;;;;;108007;1301;22537;-23
2022/08/22 04:31:16;;;;;;;1.50;0.40;;;;;;;;;;107965;1304;23220;-24
2022/08/22 04:33:44;;;;;;;0.60;0.10;;;;;;;;;;108258;1301;22463;-30
2022/08/22 04:36:13;;;;;;;2.30;1.00;;;;;;;;;;108116;1308;23186;-23
2022/08/22 04:38:41;;;;;;;0.60;0.40;;;;;;;;;;108118;1305;22944;-32
2022/08/22 04:41:10;;;;;;;1.00;0.60;;;;;;;;;;108223;1301;22543;-23
2022/08/22 04:43:39;;;;;;;0.50;0.40;;;;;;;;;;108058;1303;23333;-23
2022/08/22 04:46:07;;;;;;;2.20;0.60;;;;;;;;;;108256;1301;22265;-22
2022/08/22 04:48:34;;;;;;;1.90;0.30;;;;;;;;;;108195;1301;22462;-23
2022/08/22 04:51:02;;;;;;;1.00;0.40;;;;;;;;;;108234;1308;22721;-23
2022/08/22 04:53:37;;;;;;;0.90;0.50;;;;;;;;;;107798;1301;22544;-24
2022/08/22 04:56:06;;;;;;;0.60;0.30;;;;;;;;;;107788;1301;22530;-30
2022/08/22 04:58:35;;;;;;;2.70;0.60;;;;;;;;;;108293;1301;22349;-23
2022/08/22 05:01:04;;;;;;;1.40;0.80;;;;;;;;;;108277;1301;23387;-30
2022/08/22 05:03:30;;;;;;;3.60;0.40;;;;;;;;;;108234;1301;23215;-30
2022/08/22 05:05:56;;;;;;;0.60;0.50;;;;;;;;;;107923;1301;23543;-31
2022/08/22 05:08:23;;;;;;;2.10;0.70;;;;;;;;;;107996;1301;22965;-30
2022/08/22 05:10:49;;;;;;;1.00;0.60;;;;;;;;;;107561;1301;1002569;-30
2022/08/22 05:13:16;;;;;;;4.30;0.60;;;;;;;;;;108223;1301;25134;-27
2022/08/22 05:15:43;;;;;;;0.90;0.50;;;;;;;;;;108259;1302;23368;-30
2022/08/22 05:18:11;;;;;;;0.90;0.50;;;;;;;;;;108288;1301;23269;-24
2022/08/22 05:20:37;;;;;;;0.50;0.50;;;;;;;;;;108197;1301;22738;-30
2022/08/22 05:23:06;;;;;;;1.90;0.50;;;;;;;;;;108210;1308;23250;-23
2022/08/22 05:25:33;;;;;;;0.90;0.50;;;;;;;;;;108262;1286;22573;-30
2022/08/22 05:28:06;;;;;;;4.10;0.70;;;;;;;;;;108240;1301;22518;-23
2022/08/22 05:30:32;;;;;;;1.60;0.80;;;;;;;;;;108066;1301;23187;-30
2022/08/22 05:32:58;;;;;;;8.90;0.60;;;;;;;;;;107676;1301;652053;-22
2022/08/22 05:35:28;;;;;;;2.00;0.70;;;;;;;;;;108243;1288;22635;-23
2022/08/22 05:37:54;;;;;;;1.20;1.10;;;;;;;;;;108170;1301;23174;-23
2022/08/22 05:40:21;;;;;;;1.90;0.50;;;;;;;;;;107962;1308;22556;-30
2022/08/22 05:42:46;;;;;;;1.80;1.00;;;;;;;;;;108257;1301;22522;-23
2022/08/22 05:45:12;;;;;;;1.70;1.40;;;;;;;;;;108171;1302;22506;-30
2022/08/22 05:47:41;;;;;;;1.70;1.00;;;;;;;;;;108275;1301;23195;-30
2022/08/22 05:50:09;;;;;;;1.40;1.20;;;;;;;;;;108231;1301;23114;-23
2022/08/22 05:52:38;;;;;;;2.00;1.70;;;;;;;;;;108253;1301;22527;-24
2022/08/22 05:55:14;;;;;;;10.60;1.30;;;;;;;;;;108286;1303;25235;-30
2022/08/22 05:57:40;;;;;;;10.30;1.60;;;;;;;;;;108280;1296;22848;-23
2022/08/22 06:00:09;;;;;;;2.00;1.10;;;;;;;;;;108207;1301;22565;-23
2022/08/22 06:02:38;;;;;;;3.40;1.70;;;;;;;;;;108300;1308;22626;-29
2022/08/22 06:05:06;;;;;;;2.60;1.50;;;;;;;;;;108327;1301;22543;-23
2022/08/22 06:07:33;;;;;;;3.20;1.50;;;;;;;;;;108339;1301;23022;-24
2022/08/22 06:09:58;;;;;;;2.20;1.50;;;;;;;;;;108213;1301;23325;-23
2022/08/22 06:12:28;;;;;;;2.70;2.20;;;;;;;;;;107552;1301;25207;-30
2022/08/22 06:14:57;;;;;;;1.90;1.20;;;;;;;;;;107696;1308;23338;-23
2022/08/22 06:17:25;;;;;;;2.10;1.30;;;;;;;;;;108033;1302;22884;-30
2022/08/22 06:19:52;;;;;;;2.30;1.40;;;;;;;;;;108329;1302;23035;-23
2022/08/22 06:22:20;;;;;;;1.70;1.10;;;;;;;;;;108358;1301;22922;-29
2022/08/22 06:24:46;;;;;;;2.10;1.80;;;;;;;;;;108352;1302;22851;-23
2022/08/22 06:27:11;;;;;;;2.10;1.60;;;;;;;;;;108213;1302;23050;-29
2022/08/22 06:29:39;;;;;;;2.00;1.50;;;;;;;;;;108340;1302;23180;-29
2022/08/22 06:32:11;;;;;;;2.50;1.60;;;;;;;;;;108022;1308;22527;-24
2022/08/22 06:34:37;;;;;;;3.70;1.80;;;;;;;;;;108196;1302;22488;-23
2022/08/22 06:37:03;;;;;;;1.70;1.50;;;;;;;;;;108344;1301;22443;-29
2022/08/22 06:39:30;;;;;;;2.80;2.40;;;;;;;;;;108318;1301;22399;-23
2022/08/22 06:41:59;;;;;;;2.00;1.80;;;;;;;;;;108304;1301;22560;-29
2022/08/22 06:44:26;;;;;;;2.20;1.50;;;;;;;;;;108243;1308;23340;-22
2022/08/22 06:46:53;;;;;;;3.10;2.70;;;;;;;;;;108339;1308;22449;-29
2022/08/22 06:49:19;;;;;;;2.10;1.60;;;;;;;;;;108106;1301;25238;-24
2022/08/22 06:51:45;;;;;;;2.20;2.00;;;;;;;;;;107741;1305;25305;-27
2022/08/22 06:54:14;;;;;;;3.00;1.90;;;;;;;;;;108305;1301;22575;-28
2022/08/22 06:56:40;;;;;;;1.90;1.50;;;;;;;;;;108280;1301;23253;-22
2022/08/22 06:59:07;;;;;;;2.30;2.00;;;;;;;;;;108263;1308;23309;-22
2022/08/22 07:01:34;;;;;;;3.10;1.50;;;;;;;;;;108325;1301;23301;-29
2022/08/22 07:04:04;;;;;;;2.50;2.20;;;;;;;;;;108346;1301;23120;-29
2022/08/22 07:06:31;;;;;;;1.80;1.60;;;;;;;;;;108321;1301;22490;-22
2022/08/22 07:08:56;;;;;;;2.60;1.80;;;;;;;;;;108307;1301;22412;-23
2022/08/22 07:11:26;;;;;;;2.90;2.50;;;;;;;;;;108313;1301;22534;-29
2022/08/22 07:13:56;;;;;;;2.00;1.10;;;;;;;;;;107715;1295;23235;-29
2022/08/22 07:16:24;;;;;;;2.40;2.10;;;;;;;;;;108289;1301;23603;-29
2022/08/22 07:18:50;;;;;;;3.90;2.30;;;;;;;;;;108304;1301;22530;-27
2022/08/22 07:21:19;;;;;;;2.50;1.60;;;;;;;;;;108203;1301;23558;-28
2022/08/22 07:23:46;;;;;;;3.30;2.80;;;;;;;;;;107866;1305;23258;-29
2022/08/22 07:26:16;;;;;;;2.60;2.20;;;;;;;;;;108331;1301;25273;-22
2022/08/22 07:28:44;;;;;;;2.40;2.00;;;;;;;;;;108293;1308;22563;-29
2022/08/22 07:31:20;;;;;;;2.70;2.40;;;;;;;;;;108305;1300;23367;-23
2022/08/22 07:33:46;;;;;;;2.40;2.20;;;;;;;;;;108293;1301;23210;-29
2022/08/22 07:36:32;;;;;;;4.00;1.80;;;;;;;;;;108255;1308;22514;-23
2022/08/22 07:39:02;;;;;;;2.70;2.40;;;;;;;;;;108316;1301;22446;-25
2022/08/22 07:41:32;;;;;;;2.60;1.90;;;;;;;;;;108309;1301;22773;-32
2022/08/22 07:44:04;;;;;;;5.30;3.70;;;;;;;;;;108315;1287;23313;-29
2022/08/22 07:46:31;;;;;;;4.00;2.90;;;;;;;;;;108352;1301;23105;-29
2022/08/22 07:48:57;;;;;;;4.30;3.00;;;;;;;;;;108298;1301;22591;-23
2022/08/22 07:51:25;;;;;;;4.20;3.80;;;;;;;;;;108303;1301;23215;-23
2022/08/22 07:53:54;;;;;;;3.40;3.00;;;;;;;;;;108338;1301;23055;-29
2022/08/22 07:56:21;;;;;;;3.60;2.80;;;;;;;;;;107930;1308;22529;-29
2022/08/22 07:58:47;;;;;;;3.90;3.50;;;;;;;;;;108316;1301;23244;-23
2022/08/22 08:01:14;;;;;;;5.10;4.60;;;;;;;;;;108186;1301;22956;-22
2022/08/22 08:03:40;;;;;;;4.00;3.60;;;;;;;;;;108256;1301;23382;-28
2022/08/22 08:06:05;;;;;;;8.30;4.90;;;;;;;;;;108299;1301;23357;-29
2022/08/22 08:08:41;;;;;;;8.30;5.60;;;;;;;;;;108297;1308;23171;-23
2022/08/22 08:11:07;;;;;;;6.00;4.70;;;;;;;;;;108223;1308;22557;-22
2022/08/22 08:13:34;;;;;;;4.10;3.70;;;;;;;;;;108329;1301;23425;-28
2022/08/22 08:15:59;;;;;;;4.30;3.80;;;;;;;;;;108289;1301;22547;-23
2022/08/22 08:18:26;;;;;;;3.40;3.10;;;;;;;;;;108178;1303;22582;-29
2022/08/22 08:20:54;;;;;;;9.50;5.80;;;;;;;;;;108230;1301;22535;-29
2022/08/22 08:23:20;;;;;;;5.20;4.80;;;;;;;;;;108254;1301;23179;-29
2022/08/22 08:25:50;;;;;;;8.20;3.70;;;;;;;;;;108255;1301;22115;-28
2022/08/22 08:30:47;;;;;;;5.20;4.70;;;;;;;;;;108207;1301;23305;-29
2022/08/22 08:33:14;;;;;;;9.80;6.20;;;;;;;;;;108130;1288;23584;-23
2022/08/22 08:35:40;;;;;;;5.70;5.10;;;;;;;;;;108020;1301;22541;-29
2022/08/22 08:38:07;;;;;;;7.20;4.80;;;;;;;;;;107994;1301;23246;-23
2022/08/22 08:40:43;;;;;;;4.80;4.40;;;;;;;;;;107616;1301;22530;-29
2022/08/22 08:45:46;;;;;;;5.10;4.50;;;;;;;;;;108319;1301;23302;-29
2022/08/22 08:48:11;;;;;;;;;;;;;;;;;;107596;1301;1003070;-29
2022/08/22 08:50:40;;;;;;;4.90;4.40;;;;;;;;;;107908;1301;22524;-23
2022/08/22 08:53:09;;;;;;;9.00;5.40;;;;;;;;;;108218;1301;23186;-23
2022/08/22 08:55:37;;;;;;;13.30;4.60;;;;;;;;;;108347;1301;23199;-29
2022/08/22 08:58:09;;;;;;;9.90;5.70;;;;;;;;;;108298;1301;22548;-29
2022/08/22 09:00:39;;;;;;;7.30;6.00;;;;;;;;;;108259;1301;23361;-29
2022/08/22 09:03:07;;;;;;;14.40;6.20;;;;;;;;;;108353;1286;22550;-29
2022/08/22 09:05:38;;;;;;;6.00;5.40;;;;;;;;;;108307;1301;22438;-23
2022/08/22 09:08:04;;;;;;;4.80;4.40;;;;;;;;;;107995;1301;22526;-23
2022/08/22 09:10:33;;;;;;;6.30;5.80;;;;;;;;;;108287;1301;23646;-26
2022/08/22 09:13:02;;;;;;;5.20;4.70;;;;;;;;;;108171;1301;23381;-23
2022/08/22 09:15:28;;;;;;;6.30;5.50;;;;;;;;;;108318;1301;22555;-28
2022/08/22 09:17:57;;;;;;;9.90;7.20;;;;;;;;;;108302;1301;23159;-28
2022/08/22 09:20:29;;;;;;;5.80;5.20;;;;;;;;;;108269;1308;22205;-29
2022/08/22 09:23:02;;;;;;;9.30;7.50;;;;;;;;;;108390;1301;23204;-29
2022/08/22 09:25:30;;;;;;;8.00;7.20;;;;;;;;;;108339;1294;22525;-29
2022/08/22 09:28:01;;;;;;;13.10;7.00;;;;;;;;;;108218;1303;23272;-29
2022/08/22 09:30:47;;;;;;;8.90;8.10;;;;;;;;;;108320;1301;23172;-23
2022/08/22 09:33:13;;;;;;;6.70;6.00;;;;;;;;;;108161;1301;23147;-23
2022/08/22 09:35:39;;;;;;;6.30;5.60;;;;;;;;;;108208;1301;22392;-29
2022/08/22 09:38:12;;;;;;;9.70;6.00;;;;;;;;;;108327;1293;22523;-29
2022/08/22 09:40:38;;;;;;;7.50;6.50;;;;;;;;;;108300;1301;22544;-29
2022/08/22 09:43:05;;;;;;;11.90;5.90;;;;;;;;;;108337;1301;22462;-23
2022/08/22 09:45:39;;;;;;;8.20;7.40;;;;;;;;;;108334;1301;23217;-29
2022/08/22 09:48:08;;;;;;;7.70;6.80;;;;;;;;;;107575;1300;1002530;-23
2022/08/22 09:50:43;;;;;;;9.20;8.30;;;;;;;;;;107911;1308;25219;-29
2022/08/22 09:53:09;;;;;;;16.70;8.30;;;;;;;;;;108117;1301;23506;-22
2022/08/22 09:55:38;;;;;;;7.50;6.10;;;;;;;;;;108259;1301;23651;-28
2022/08/22 09:58:05;;;;;;;9.90;8.10;;;;;;;;;;108323;1301;23009;-23
2022/08/22 10:00:33;;;;;;;8.50;7.20;;;;;;;;;;108189;1286;22509;-24
2022/08/22 10:03:00;;;;;;;11.40;9.00;;;;;;;;;;107645;1304;23246;-31
2022/08/22 10:05:27;;;;;;;7.00;5.90;;;;;;;;;;107986;1308;23387;-25
2022/08/22 10:07:57;;;;;;;10.20;8.90;;;;;;;;;;108332;1301;22450;-25
2022/08/22 10:10:26;;;;;;;9.10;8.20;;;;;;;;;;108301;1308;23221;-25
2022/08/22 10:12:54;;;;;;;11.80;7.90;;;;;;;;;;108322;1301;23338;-26
2022/08/22 10:15:22;;;;;;;10.60;7.70;;;;;;;;;;107944;1301;23387;-29
2022/08/22 10:17:51;;;;;;;13.70;8.90;;;;;;;;;;108319;1301;22408;-23
2022/08/22 10:20:20;;;;;;;7.00;6.40;;;;;;;;;;108358;1300;23373;-23
2022/08/22 10:22:54;;;;;;;9.40;8.40;;;;;;;;;;108406;1300;23179;-23
2022/08/22 10:25:23;;;;;;;12.10;10.60;;;;;;;;;;107903;1300;22539;-29
2022/08/22 10:27:52;;;;;;;9.70;8.10;;;;;;;;;;108087;1301;23077;-23
2022/08/22 10:30:21;;;;;;;11.30;9.80;;;;;;;;;;108342;1308;22500;-23
2022/08/22 10:32:59;;;;;;;10.30;8.30;;;;;;;;;;108172;1301;23338;-24
2022/08/22 10:35:31;;;;;;;15.10;9.20;;;;;;;;;;108059;1300;23230;-28
2022/08/22 10:37:57;;;;;;;13.10;8.90;;;;;;;;;;108307;1300;22762;-23
2022/08/22 10:40:26;;;;;;;10.80;8.80;;;;;;;;;;108327;1287;23139;-31
2022/08/22 10:42:54;;;;;;;13.90;9.50;;;;;;;;;;108322;1301;22404;-25
2022/08/22 10:45:26;;;;;;;14.90;9.50;;;;;;;;;;108309;1301;23373;-25
2022/08/22 10:48:12;;;;;;;7.40;6.60;;;;;;;;;;108308;1300;22548;-25
2022/08/22 10:50:39;;;;;;;16.40;11.60;;;;;;;;;;108305;1301;23257;-25
2022/08/22 10:55:34;;;;;;;13.70;10.70;;;;;;;;;;108307;1300;23115;-25
2022/08/22 10:58:03;;;;;;;7.40;6.20;;;;;;;;;;108286;1301;22536;-31
2022/08/22 11:00:32;;;;;;;10.30;8.00;;;;;;;;;;108306;1301;22544;-25
2022/08/22 11:03:01;;;;;;;11.20;10.00;;;;;;;;;;108303;1301;23182;-24
2022/08/22 11:05:30;;;;;;;10.10;9.00;;;;;;;;;;107382;1302;25189;-24
2022/08/22 11:07:59;;;;;;;10.50;9.20;;;;;;;;;;108302;1301;23083;-30
2022/08/22 11:10:26;;;;;;;10.20;8.10;;;;;;;;;;108081;1301;22543;-24
2022/08/22 11:12:57;;;;;;;12.00;10.00;;;;;;;;;;107016;1308;22457;-29
2022/08/22 11:15:42;;;;;;;11.10;9.70;;;;;;;;;;108147;1308;22619;-24
2022/08/22 11:18:12;;;;;;;18.30;12.70;;;;;;;;;;108301;1308;22530;-25
2022/08/22 11:20:41;;;;;;;11.90;9.70;;;;;;;;;;108288;1308;22756;-30
2022/08/22 11:23:29;;;;;;;12.90;9.00;;;;;;;;;;108363;1300;23151;-30
2022/08/22 11:26:00;;;;;;;13.20;11.40;;;;;;;;;;107544;1301;23580;-23
2022/08/22 11:28:29;;;;;;;13.40;9.90;;;;;;;;;;108292;1300;23172;-23
2022/08/22 11:30:58;;;;;;;12.10;10.90;;;;;;;;;;108301;1301;23137;-22
2022/08/22 11:33:26;;;;;;;13.80;12.40;;;;;;;;;;108306;1301;22428;-23
2022/08/22 11:35:57;;;;;;;13.50;10.60;;;;;;;;;;108258;1301;24561;-29
2022/08/22 11:38:27;;;;;;;11.10;8.50;;;;;;;;;;108231;1301;23332;-23
2022/08/22 11:40:56;;;;;;;11.90;10.70;;;;;;;;;;108308;1300;23231;-29
2022/08/22 11:43:23;;;;;;;13.80;11.70;;;;;;;;;;108180;1308;23378;-24
2022/08/22 11:45:49;;;;;;;13.30;8.30;;;;;;;;;;108294;1301;23748;-23
2022/08/22 11:48:15;;;;;;;10.70;8.20;;;;;;;;;;107299;1301;23231;-29
2022/08/22 11:50:42;;;;;;;17.20;13.30;;;;;;;;;;107943;1308;25235;-23
2022/08/22 11:53:12;;;;;;;9.90;8.90;;;;;;;;;;108269;1308;22568;-28
2022/08/22 11:55:38;;;;;;;11.40;9.80;;;;;;;;;;108150;1302;22547;-29
2022/08/22 11:58:07;;;;;;;12.20;11.00;;;;;;;;;;107963;1300;23248;-28
2022/08/22 12:00:36;;;;;;;10.70;9.00;;;;;;;;;;107977;1308;23200;-29
2022/08/22 12:03:13;;;;;;;11.50;10.10;;;;;;;;;;108301;1301;22391;-29
2022/08/22 12:05:42;;;;;;;24.00;12.40;;;;;;;;;;108284;1301;22541;-29
2022/08/22 12:08:09;;;;;;;13.20;11.80;;;;;;;;;;108286;1308;23124;-29
2022/08/22 12:10:36;;;;;;;13.80;9.80;;;;;;;;;;108135;1300;22536;-28
2022/08/22 12:13:04;;;;;;;16.10;9.90;;;;;;;;;;108111;1302;22744;-23
2022/08/22 12:15:41;;;;;;;13.40;10.70;;;;;;;;;;108198;1301;23322;-29
2022/08/22 12:18:07;;;;;;;8.70;7.60;;;;;;;;;;108028;1308;23011;-28
2022/08/22 12:20:44;;;;;;;10.20;8.20;;;;;;;;;;108061;1301;23151;-29
2022/08/22 12:23:23;;;;;;;13.80;10.60;;;;;;;;;;107744;1303;22558;-23
2022/08/22 12:26:02;;;;;;;12.20;10.60;;;;;;;;;;107180;1301;23241;-23
2022/08/22 12:28:30;;;;;;;13.90;10.90;;;;;;;;;;108188;1288;22556;-23
2022/08/22 12:30:59;;;;;;;14.20;11.50;;;;;;;;;;108125;1288;22525;-23
2022/08/22 12:33:28;;;;;;;13.80;11.30;;;;;;;;;;108256;1301;22556;-29
2022/08/22 12:35:57;;;;;;;13.30;9.80;;;;;;;;;;108224;1301;22563;-24
2022/08/22 12:38:28;;;;;;;14.40;11.70;;;;;;;;;;107877;1301;22543;-29
2022/08/22 12:41:01;;;;;;;12.90;8.30;;;;;;;;;;108101;1308;22530;-23
2022/08/22 12:43:28;;;;;;;13.20;10.80;;;;;;;;;;108215;1301;23235;-29
2022/08/22 12:46:15;;;;;;;8.90;6.00;;;;;;;;;;108271;1301;23270;-28
2022/08/22 12:48:44;;;;;;;11.50;9.10;;;;;;;;;;108313;1301;22736;-23
2022/08/22 12:51:13;;;;;;;11.90;10.00;;;;;;;;;;108304;1285;22687;-23
2022/08/22 12:53:38;;;;;;;9.80;8.00;;;;;;;;;;107745;1301;23364;-23
2022/08/22 12:56:12;;;;;;;15.60;12.40;;;;;;;;;;107721;1308;23512;-23
2022/08/22 12:58:41;;;;;;;10.00;8.30;;;;;;;;;;108274;1301;22435;-28
2022/08/22 13:01:07;;;;;;;11.90;8.70;;;;;;;;;;108212;1301;23108;-28
2022/08/22 13:03:34;;;;;;;16.10;13.10;;;;;;;;;;108274;1301;23185;-23
2022/08/22 13:06:03;;;;;;;14.60;11.90;;;;;;;;;;108212;1300;23247;-23
2022/08/22 13:08:30;;;;;;;13.20;11.80;;;;;;;;;;108124;1308;22797;-28
2022/08/22 13:11:00;;;;;;;14.50;12.10;;;;;;;;;;108197;1301;23224;-23
2022/08/22 13:13:28;;;;;;;14.80;11.30;;;;;;;;;;108181;1308;23214;-23
2022/08/22 13:15:55;;;;;;;15.90;12.50;;;;;;;;;;108257;1308;22528;-28
2022/08/22 13:18:24;;;;;;;18.40;12.30;;;;;;;;;;108260;1308;23337;-28
2022/08/22 13:20:50;;;;;;;23.50;11.90;;;;;;;;;;108137;1308;23350;-25
2022/08/22 13:23:19;;;;;;;10.20;8.70;;;;;;;;;;108019;1301;22534;-25
2022/08/22 13:25:48;;;;;;;11.40;8.50;;;;;;;;;;107970;1308;22536;-30
2022/08/22 13:28:14;;;;;;;12.00;10.40;;;;;;;;;;108109;1308;23201;-25
2022/08/22 13:30:40;;;;;;;14.30;10.50;;;;;;;;;;108052;1308;22209;-25
2022/08/22 13:33:08;;;;;;;12.60;9.20;;;;;;;;;;107557;1301;796851;-25
2022/08/22 13:35:38;;;;;;;14.10;11.30;;;;;;;;;;108200;1301;22540;-23
2022/08/22 13:38:05;;;;;;;9.90;9.00;;;;;;;;;;108279;1301;23180;-23
2022/08/22 13:40:30;;;;;;;13.70;11.30;;;;;;;;;;108038;1304;22538;-24
2022/08/22 13:43:00;;;;;;;12.60;11.40;;;;;;;;;;108215;1308;24546;-24
2022/08/22 13:45:26;;;;;;;11.70;9.70;;;;;;;;;;108206;1301;23182;-30
2022/08/22 13:47:55;;;;;;;11.70;10.20;;;;;;;;;;108117;1301;22510;-30
2022/08/22 13:50:21;;;;;;;16.20;11.70;;;;;;;;;;108280;1301;22537;-25
2022/08/22 13:52:47;;;;;;;10.70;9.30;;;;;;;;;;108269;1301;23065;-25
2022/08/22 13:55:16;;;;;;;12.40;11.10;;;;;;;;;;108253;1301;23190;-25
2022/08/22 13:57:43;;;;;;;16.20;10.20;;;;;;;;;;108263;1301;22385;-30
2022/08/22 14:00:28;;;;;;;13.00;9.80;;;;;;;;;;108298;1301;23268;-25
2022/08/22 14:03:12;;;;;;;13.40;10.10;;;;;;;;;;108202;1308;22603;-30
2022/08/22 14:05:40;;;;;;;11.70;9.50;;;;;;;;;;108127;1301;23243;-25
2022/08/22 14:08:09;;;;;;;14.60;11.80;;;;;;;;;;108185;1301;22638;-30
2022/08/22 14:10:36;;;;;;;13.90;9.80;;;;;;;;;;107431;1308;22567;-29
2022/08/22 14:13:11;;;;;;;11.30;10.00;;;;;;;;;;107826;1301;22546;-29
2022/08/22 14:15:36;;;;;;;13.30;11.20;;;;;;;;;;108247;1301;22571;-29
2022/08/22 14:18:05;;;;;;;13.50;11.60;;;;;;;;;;108228;1301;23403;-29
2022/08/22 14:20:31;;;;;;;11.00;9.60;;;;;;;;;;108151;1301;22562;-23
2022/08/22 14:22:58;;;;;;;12.30;9.50;;;;;;;;;;108002;1302;22537;-23
2022/08/22 14:25:25;;;;;;;14.40;10.40;;;;;;;;;;108269;1301;23361;-29
2022/08/22 14:27:56;;;;;;;15.70;12.50;;;;;;;;;;108249;1301;22353;-23
2022/08/22 14:30:25;;;;;;;15.90;12.40;;;;;;;;;;108266;1301;22701;-23
2022/08/22 14:32:52;;;;;;;16.50;12.90;;;;;;;;;;108215;1308;22456;-29
2022/08/22 14:35:19;;;;;;;15.20;11.10;;;;;;;;;;107881;1301;23203;-29
2022/08/22 14:37:45;;;;;;;11.40;9.40;;;;;;;;;;108305;1301;22118;-29
2022/08/22 14:40:15;;;;;;;13.40;9.70;;;;;;;;;;107726;1301;22534;-23
2022/08/22 14:42:44;;;;;;;15.60;11.90;;;;;;;;;;108312;1300;23327;-29